Terminal Aerodrome Forecast
Issued by NWS Wakefield, VA

Home | Current Version | Previous Version | Text Only | Print | Product List | Glossary On
Versions: 1 2 3 4 5 6 7 8 9 10 11 12 13 14
000
FTUS41 KAKQ 160500
TAFSBY
TAF
KSBY 160521Z 1606/1706 VRB03KT P6SM SCT025 BKN100
      TEMPO 1606/1610 BKN025
     FM161000 24005KT 4SM BR BKN015
     FM161400 31010KT P6SM BKN040
     FM161900 35006KT P6SM BKN250
      AMD NOT SKED=

USA.gov is the U.S. government's official web portal to all federal, state and local government web resources and services.